Time;durP1;ratioP1;P1;durP2;ratioP2;P2;SDS_P1;SDS_P2;PMS_P1;PMS_P2;Temp;Humidity;BMP_temperature;BMP_pressure;BME280_temperature;BME280_humidity;BME280_pressure;Samples;Min_cycle;Max_cycle;Signal;HPM_P1;HPM_P2
2023/07/26 00:00:25;;;;;;;4.00;2.70;;;;;;;17.57;53.97;101049.50;5054615;28;20375;-71
2023/07/26 00:02:51;;;;;;;3.03;2.72;;;;;;;17.60;53.75;101051.72;5071085;28;20035;-71
2023/07/26 00:05:16;;;;;;;5.13;3.35;;;;;;;17.55;53.38;101043.34;5052110;28;20033;-70
2023/07/26 00:07:41;;;;;;;3.00;2.70;;;;;;;17.48;53.58;101054.91;5052374;28;20112;-71
2023/07/26 00:10:07;;;;;;;4.45;2.95;;;;;;;17.52;53.59;101043.94;5073762;28;20028;-71
2023/07/26 00:12:33;;;;;;;2.92;2.70;;;;;;;17.54;53.75;101038.88;5058298;28;20072;-70
2023/07/26 00:14:58;;;;;;;4.30;2.90;;;;;;;17.43;53.58;101044.56;5067114;28;20021;-70
2023/07/26 00:17:23;;;;;;;5.80;3.10;;;;;;;17.50;53.56;101049.00;5070958;28;20052;-71
2023/07/26 00:19:49;;;;;;;4.65;3.28;;;;;;;17.51;54.01;101039.44;5067897;28;20539;-70
2023/07/26 00:22:15;;;;;;;4.70;2.85;;;;;;;17.50;53.81;101038.63;5071984;28;20147;-70
2023/07/26 00:24:41;;;;;;;4.97;3.13;;;;;;;17.49;54.09;101041.69;5069326;28;20203;-71
2023/07/26 00:27:06;;;;;;;3.33;2.90;;;;;;;17.48;54.31;101040.03;5071653;28;20415;-71
2023/07/26 00:29:31;;;;;;;5.75;3.13;;;;;;;17.44;54.38;101045.41;5066623;28;20400;-71
2023/07/26 00:31:57;;;;;;;5.55;3.50;;;;;;;17.38;54.64;101044.63;5050756;28;20392;-71
2023/07/26 00:34:22;;;;;;;3.92;3.13;;;;;;;17.39;54.63;101049.09;5051772;28;20441;-70
2023/07/26 00:36:47;;;;;;;3.15;2.80;;;;;;;17.41;54.80;101040.41;5070438;28;20024;-70
2023/07/26 00:39:13;;;;;;;3.90;3.38;;;;;;;17.41;54.73;101041.25;5075786;28;20032;-71
2023/07/26 00:41:39;;;;;;;6.00;3.35;;;;;;;17.32;54.94;101042.16;5069586;28;20082;-70
2023/07/26 00:44:04;;;;;;;4.03;3.63;;;;;;;17.35;55.01;101036.78;5050550;28;20115;-70
2023/07/26 00:46:30;;;;;;;5.07;3.50;;;;;;;17.36;55.35;101046.88;5051654;28;20028;-70
2023/07/26 00:48:57;;;;;;;5.85;3.42;;;;;;;17.38;55.34;101046.59;5070509;28;20465;-70
2023/07/26 00:51:23;;;;;;;3.60;3.25;;;;;;;17.32;55.32;101036.53;5061877;28;20036;-70
2023/07/26 00:53:48;;;;;;;5.28;3.35;;;;;;;17.30;55.39;101038.81;5067184;28;20025;-70
2023/07/26 00:56:14;;;;;;;3.90;3.53;;;;;;;17.31;55.76;101043.28;5071389;28;20028;-71
2023/07/26 00:58:40;;;;;;;5.20;3.92;;;;;;;17.25;56.32;101025.66;5070943;28;20130;-70
2023/07/26 01:01:05;;;;;;;6.13;3.83;;;;;;;17.31;55.81;101035.69;5070777;28;20032;-70
2023/07/26 01:03:31;;;;;;;4.80;3.65;;;;;;;17.19;55.80;101035.25;5059995;28;20033;-70
2023/07/26 01:05:56;;;;;;;5.85;3.55;;;;;;;17.22;55.70;101037.47;5079371;28;20024;-71
2023/07/26 01:08:27;;;;;;;4.43;3.55;;;;;;;17.24;55.99;101040.81;5060191;28;20475;-70
2023/07/26 01:10:57;;;;;;;4.25;3.30;;;;;;;17.25;56.05;101031.28;5051318;28;20035;-70
2023/07/26 01:13:47;;;;;;;4.18;3.28;;;;;;;17.24;55.98;101046.41;5063843;28;20115;-71
2023/07/26 01:16:13;;;;;;;4.15;3.60;;;;;;;17.23;55.99;101044.75;5060032;28;20047;-70
2023/07/26 01:18:39;;;;;;;4.20;3.70;;;;;;;17.15;56.31;101046.22;5070877;28;20111;-70
2023/07/26 01:21:04;;;;;;;4.00;3.60;;;;;;;17.16;56.32;101045.06;5066153;28;20060;-70
2023/07/26 01:23:30;;;;;;;4.45;4.05;;;;;;;17.10;56.54;101048.22;5086082;28;20123;-70
2023/07/26 01:25:55;;;;;;;4.65;3.80;;;;;;;17.10;56.57;101046.25;5091136;28;20087;-70
2023/07/26 01:28:20;;;;;;;5.93;3.75;;;;;;;17.03;56.84;101044.91;5058945;28;20079;-70
2023/07/26 01:30:48;;;;;;;5.45;3.63;;;;;;;17.05;56.70;101048.25;5064555;28;20060;-70
2023/07/26 01:33:14;;;;;;;7.10;4.40;;;;;;;17.08;56.67;101047.66;5069853;28;20025;-70
2023/07/26 01:35:40;;;;;;;4.72;3.65;;;;;;;17.00;56.93;101045.50;5071001;28;20078;-70
2023/07/26 01:38:07;;;;;;;4.90;3.35;;;;;;;17.02;57.08;101043.25;5071676;28;20028;-70
2023/07/26 01:40:35;;;;;;;5.35;3.67;;;;;;;17.02;57.27;101037.63;5074558;28;20112;-71
2023/07/26 01:43:00;;;;;;;5.38;3.75;;;;;;;17.00;57.24;101043.53;5074634;28;20040;-71
2023/07/26 01:45:26;;;;;;;4.95;4.03;;;;;;;17.05;57.03;101048.25;5095551;28;20032;-70
2023/07/26 01:47:52;;;;;;;5.38;3.72;;;;;;;16.94;57.21;101041.91;5079239;28;20029;-70
2023/07/26 01:50:18;;;;;;;5.97;3.75;;;;;;;16.89;57.39;101039.13;5063562;28;20388;-71
2023/07/26 01:52:43;;;;;;;4.95;3.95;;;;;;;16.87;57.60;101036.59;5055131;28;20036;-71
2023/07/26 01:55:09;;;;;;;5.30;3.90;;;;;;;16.92;57.10;101041.34;5054779;28;20428;-70
2023/07/26 01:57:34;;;;;;;4.95;3.97;;;;;;;16.91;57.57;101037.69;5054675;28;20448;-70
2023/07/26 02:00:00;;;;;;;4.00;3.60;;;;;;;16.97;57.41;101034.84;5095381;28;20032;-70
2023/07/26 02:02:25;;;;;;;4.93;3.85;;;;;;;16.87;57.59;101031.00;5056925;28;20114;-70
2023/07/26 02:04:50;;;;;;;4.32;3.50;;;;;;;16.88;57.68;101035.47;5054517;28;20039;-70
2023/07/26 02:07:16;;;;;;;4.35;3.63;;;;;;;16.85;57.57;101043.63;5060008;28;20030;-70
2023/07/26 02:09:42;;;;;;;4.45;4.05;;;;;;;16.75;57.92;101038.09;5054263;28;20025;-70
2023/07/26 02:12:07;;;;;;;4.70;3.53;;;;;;;16.74;57.79;101033.59;5054620;28;20460;-70
2023/07/26 02:14:32;;;;;;;6.55;3.78;;;;;;;16.79;57.88;101034.44;5068917;28;20027;-70
2023/07/26 02:16:58;;;;;;;5.00;3.50;;;;;;;16.79;57.75;101034.44;5069778;28;20556;-70
2023/07/26 02:19:23;;;;;;;3.63;3.25;;;;;;;16.77;57.81;101031.06;5057881;28;20039;-70
2023/07/26 02:21:48;;;;;;;4.45;3.15;;;;;;;16.72;57.61;101033.03;5054219;28;20037;-70
2023/07/26 02:24:14;;;;;;;6.70;3.28;;;;;;;16.73;57.79;101027.16;5070443;28;20077;-70
2023/07/26 02:26:39;;;;;;;6.00;3.08;;;;;;;16.76;57.76;101025.75;5063961;28;20021;-71
2023/07/26 02:29:05;;;;;;;4.25;3.50;;;;;;;16.80;57.65;101030.47;5054207;28;20116;-71
2023/07/26 02:31:30;;;;;;;6.07;3.17;;;;;;;16.76;58.02;101034.16;5057814;28;20032;-70
2023/07/26 02:33:56;;;;;;;3.83;3.17;;;;;;;16.73;58.05;101029.09;5073850;28;20070;-70
2023/07/26 02:36:21;;;;;;;3.70;3.05;;;;;;;16.73;57.90;101029.97;5055910;28;20032;-71
2023/07/26 02:38:46;;;;;;;5.75;3.05;;;;;;;16.73;58.11;101035.56;5052670;28;20420;-70
2023/07/26 02:41:12;;;;;;;4.18;3.28;;;;;;;16.69;58.40;101028.84;5058680;28;20175;-70
2023/07/26 02:43:37;;;;;;;3.97;2.90;;;;;;;16.71;58.43;101022.97;5053461;28;20473;-71
2023/07/26 02:46:02;;;;;;;4.20;3.00;;;;;;;16.64;58.20;101024.09;5060384;28;20051;-70
2023/07/26 02:48:27;;;;;;;4.38;3.03;;;;;;;16.64;58.19;101021.31;5077223;28;20024;-71
2023/07/26 02:50:53;;;;;;;3.20;2.80;;;;;;;16.65;57.98;101027.75;5073463;28;20029;-71
2023/07/26 02:53:18;;;;;;;4.07;3.15;;;;;;;16.61;57.97;101032.25;5072338;28;20368;-70
2023/07/26 02:55:43;;;;;;;4.95;3.00;;;;;;;16.60;58.29;101044.59;5070278;28;20016;-71
2023/07/26 02:58:09;;;;;;;4.22;3.10;;;;;;;16.58;57.97;101041.22;5073048;28;20123;-71
2023/07/26 03:00:35;;;;;;;4.47;3.30;;;;;;;16.61;57.89;101046.28;5069218;28;20747;-70
2023/07/26 03:03:00;;;;;;;3.83;3.42;;;;;;;16.51;58.50;101046.34;5053453;28;20047;-70
2023/07/26 03:05:26;;;;;;;4.40;3.50;;;;;;;16.53;58.86;101038.47;5068828;28;20031;-70
2023/07/26 03:07:51;;;;;;;5.15;3.40;;;;;;;16.52;59.03;101042.41;5073231;28;20465;-70
2023/07/26 03:10:17;;;;;;;5.25;3.70;;;;;;;16.45;59.49;101051.13;5087502;28;20512;-70
2023/07/26 03:12:43;;;;;;;4.22;3.72;;;;;;;16.43;59.45;101050.59;5074327;28;20112;-71
2023/07/26 03:15:09;;;;;;;4.10;3.70;;;;;;;16.48;59.42;101044.94;5073183;28;20039;-70
2023/07/26 03:17:34;;;;;;;3.58;3.28;;;;;;;16.49;59.58;101043.81;5072955;28;20110;-70
2023/07/26 03:19:59;;;;;;;4.63;3.80;;;;;;;16.50;60.31;101039.03;5072370;28;20037;-70
2023/07/26 03:22:25;;;;;;;5.25;3.58;;;;;;;16.49;60.35;101032.59;5069477;28;20123;-70
2023/07/26 03:24:50;;;;;;;4.47;3.80;;;;;;;16.53;60.41;101044.06;5053256;28;20025;-70
2023/07/26 03:27:15;;;;;;;5.07;3.63;;;;;;;16.45;60.83;101040.75;5074643;28;20433;-70
2023/07/26 03:29:40;;;;;;;4.78;3.63;;;;;;;16.43;60.23;101045.81;5081535;28;20138;-70
2023/07/26 03:32:06;;;;;;;4.47;3.72;;;;;;;16.43;60.77;101044.97;5052818;28;20117;-71
2023/07/26 03:34:31;;;;;;;6.40;3.80;;;;;;;16.44;60.78;101043.84;5052125;28;20029;-70
2023/07/26 03:36:57;;;;;;;5.20;3.22;;;;;;;16.36;60.63;101045.28;5052675;28;20052;-70
2023/07/26 03:39:22;;;;;;;4.03;3.53;;;;;;;16.36;60.50;101042.47;5052614;28;20033;-70
2023/07/26 03:41:47;;;;;;;5.25;3.60;;;;;;;16.34;60.74;101044.72;5056066;28;20031;-70
2023/07/26 03:44:13;;;;;;;5.80;3.55;;;;;;;16.29;60.42;101053.16;5091461;28;20058;-70
2023/07/26 03:46:38;;;;;;;4.82;3.83;;;;;;;16.25;60.73;101054.00;5086970;28;20020;-70
2023/07/26 03:49:03;;;;;;;4.28;2.95;;;;;;;16.22;60.76;101051.78;5060903;28;20033;-70
2023/07/26 03:51:29;;;;;;;4.25;2.70;;;;;;;16.25;60.73;101057.66;5056268;28;20572;-71
2023/07/26 03:53:54;;;;;;;3.63;2.90;;;;;;;16.20;60.26;101043.69;5052059;28;20103;-71
2023/07/26 03:56:19;;;;;;;4.10;2.55;;;;;;;16.14;60.27;101050.41;5052277;28;20447;-71
2023/07/26 03:58:45;;;;;;;2.78;2.50;;;;;;;16.08;60.36;101049.59;5079606;28;20032;-70
2023/07/26 04:01:10;;;;;;;5.22;2.80;;;;;;;16.11;60.65;101051.84;5071060;28;20063;-71
2023/07/26 04:03:35;;;;;;;3.00;2.42;;;;;;;16.12;60.54;101045.09;5071806;28;20426;-71
2023/07/26 04:06:00;;;;;;;2.90;2.50;;;;;;;16.11;60.37;101043.44;5068072;28;20036;-70
2023/07/26 04:08:26;;;;;;;5.18;2.53;;;;;;;16.12;60.55;101042.31;5070705;28;20016;-70
2023/07/26 04:10:51;;;;;;;3.00;2.70;;;;;;;16.10;60.84;101046.50;5071929;28;20052;-70
2023/07/26 04:13:16;;;;;;;3.00;2.50;;;;;;;16.05;60.95;101050.16;5066545;28;20488;-70
2023/07/26 04:15:42;;;;;;;4.45;2.85;;;;;;;16.02;61.12;101041.50;5051374;28;20040;-69
2023/07/26 04:18:07;;;;;;;5.68;2.80;;;;;;;16.06;60.90;101048.19;5061343;28;20392;-70
2023/07/26 04:20:33;;;;;;;4.68;3.53;;;;;;;16.00;61.05;101043.75;5068032;28;20028;-71
2023/07/26 04:22:58;;;;;;;3.53;3.15;;;;;;;15.95;61.32;101048.25;5077245;28;20044;-71
2023/07/26 04:25:23;;;;;;;3.60;3.20;;;;;;;15.94;61.58;101051.31;5063696;28;20109;-71
2023/07/26 04:27:49;;;;;;;4.85;3.70;;;;;;;15.95;61.53;101047.38;5083778;28;20059;-71
2023/07/26 04:30:14;;;;;;;4.28;3.58;;;;;;;15.89;61.94;101054.97;5052251;28;20079;-71
2023/07/26 04:32:39;;;;;;;5.28;3.70;;;;;;;15.90;61.97;101050.19;5055233;28;20032;-71
2023/07/26 04:35:05;;;;;;;5.90;3.83;;;;;;;15.91;62.25;101043.47;5051329;28;20140;-71
2023/07/26 04:37:30;;;;;;;4.68;4.10;;;;;;;15.84;62.51;101041.00;5050208;28;20075;-71
2023/07/26 04:39:56;;;;;;;7.50;4.28;;;;;;;15.89;62.36;101043.78;5065944;28;20060;-71
2023/07/26 04:42:21;;;;;;;6.75;4.30;;;;;;;15.88;62.65;101047.69;5068798;28;20414;-70
2023/07/26 04:44:46;;;;;;;7.53;5.00;;;;;;;15.90;62.65;101047.41;5060340;28;20112;-70
2023/07/26 04:47:13;;;;;;;7.38;4.63;;;;;;;15.93;62.72;101049.63;5051212;28;20083;-70
2023/07/26 04:49:38;;;;;;;6.43;5.20;;;;;;;15.94;62.79;101054.94;5051144;28;20024;-70
2023/07/26 04:52:04;;;;;;;6.13;5.05;;;;;;;15.90;62.95;101056.63;5051100;28;20045;-70
2023/07/26 04:54:29;;;;;;;6.93;5.05;;;;;;;15.92;63.27;101051.59;5059169;28;20052;-70
2023/07/26 04:56:55;;;;;;;5.78;5.10;;;;;;;15.89;63.43;101057.75;5078198;28;20442;-70
2023/07/26 04:59:20;;;;;;;6.00;5.13;;;;;;;15.86;63.57;101052.72;5055013;28;20370;-70
2023/07/26 05:01:45;;;;;;;7.18;4.90;;;;;;;15.97;63.42;101044.31;5058431;28;20435;-70
2023/07/26 05:04:11;;;;;;;7.70;5.53;;;;;;;15.94;63.32;101040.94;5070526;28;20095;-69
2023/07/26 05:06:36;;;;;;;6.18;5.55;;;;;;;15.93;63.37;101047.69;5064943;28;20057;-70
2023/07/26 05:09:04;;;;;;;9.48;5.78;;;;;;;15.94;63.34;101049.34;5051336;28;20025;-69
2023/07/26 05:11:30;;;;;;;8.55;5.63;;;;;;;15.95;63.59;101051.03;5065230;28;20326;-70
2023/07/26 05:13:55;;;;;;;8.38;5.55;;;;;;;15.97;63.56;101049.91;5057831;28;20542;-70
2023/07/26 05:16:21;;;;;;;7.47;5.40;;;;;;;15.96;63.62;101054.69;5058600;28;20056;-70
2023/07/26 05:18:46;;;;;;;6.22;5.60;;;;;;;15.93;63.62;101050.47;5066464;28;20036;-70
2023/07/26 05:21:12;;;;;;;7.20;5.70;;;;;;;16.01;63.62;101045.41;5063400;28;20031;-70
2023/07/26 05:23:37;;;;;;;6.43;5.82;;;;;;;16.05;63.60;101057.72;5052114;28;20036;-70
2023/07/26 05:26:03;;;;;;;6.20;5.60;;;;;;;16.02;63.85;101052.69;5050728;28;20033;-70
2023/07/26 05:28:28;;;;;;;7.85;6.00;;;;;;;16.02;63.99;101050.72;5070829;28;20024;-70
2023/07/26 05:30:55;;;;;;;8.27;5.55;;;;;;;16.10;63.72;101049.31;5069692;28;20037;-70
2023/07/26 05:33:20;;;;;;;8.85;6.13;;;;;;;16.12;63.92;101055.47;5077953;28;20036;-70
2023/07/26 05:35:46;;;;;;;7.70;5.72;;;;;;;16.13;64.03;101052.38;5056086;28;20032;-70
2023/07/26 05:38:11;;;;;;;8.73;6.15;;;;;;;16.14;64.35;101044.81;5070864;28;20052;-70
2023/07/26 05:40:36;;;;;;;9.70;5.82;;;;;;;16.21;64.12;101048.13;5070564;28;20040;-70
2023/07/26 05:43:02;;;;;;;9.45;6.28;;;;;;;16.26;64.36;101053.72;5070818;28;20086;-70
2023/07/26 05:45:27;;;;;;;8.18;5.97;;;;;;;16.27;64.45;101049.81;5081876;28;20036;-70
2023/07/26 05:47:52;;;;;;;7.10;5.75;;;;;;;16.32;64.41;101057.34;5063229;28;20024;-70
2023/07/26 05:50:18;;;;;;;8.75;6.10;;;;;;;16.41;64.31;101061.22;5053031;28;20378;-70
2023/07/26 05:52:43;;;;;;;9.18;6.07;;;;;;;16.46;64.30;101055.59;5066395;28;20060;-70
2023/07/26 05:55:09;;;;;;;10.25;6.72;;;;;;;16.49;64.37;101056.97;5069510;28;20020;-70
2023/07/26 05:57:34;;;;;;;8.30;6.03;;;;;;;16.46;64.74;101058.38;5065422;28;20956;-70
2023/07/26 06:00:00;;;;;;;11.98;7.20;;;;;;;16.47;64.82;101046.06;5050222;28;20021;-70
2023/07/26 06:02:25;;;;;;;10.88;6.80;;;;;;;16.48;64.81;101047.75;5054228;28;20112;-70
2023/07/26 06:04:50;;;;;;;9.50;6.90;;;;;;;16.49;65.16;101059.78;5050755;28;20029;-69
2023/07/26 06:07:16;;;;;;;8.63;6.78;;;;;;;16.55;65.08;101062.28;5050292;28;20440;-70
2023/07/26 06:09:45;;;;;;;11.27;6.82;;;;;;;16.65;65.37;101065.00;5062499;28;20033;-70
2023/07/26 06:12:10;;;;;;;8.82;7.55;;;;;;;16.70;65.36;101069.75;5069554;28;20055;-70
2023/07/26 06:14:36;;;;;;;12.65;7.82;;;;;;;16.74;65.27;101079.31;5059099;28;20028;-70
2023/07/26 06:17:02;;;;;;;10.10;8.13;;;;;;;16.78;65.58;101082.34;5055078;28;20485;-70
2023/07/26 06:19:27;;;;;;;10.52;7.60;;;;;;;16.75;65.55;101080.16;5050819;28;20041;-70
2023/07/26 06:21:55;;;;;;;10.20;7.82;;;;;;;16.74;65.96;101079.31;5055891;28;20019;-70
2023/07/26 06:24:22;;;;;;;13.05;8.48;;;;;;;16.77;65.80;101089.94;5053087;28;20029;-70
2023/07/26 06:26:48;;;;;;;13.43;8.05;;;;;;;16.76;66.11;101101.44;5063145;28;20029;-70
2023/07/26 06:29:13;;;;;;;13.13;8.38;;;;;;;16.73;66.49;101097.25;5078184;28;20039;-70
2023/07/26 06:31:38;;;;;;;12.85;8.50;;;;;;;16.74;66.51;101101.75;5056967;28;20061;-70
2023/07/26 06:34:04;;;;;;;13.30;9.25;;;;;;;16.76;66.89;101109.84;5072832;28;20391;-70
2023/07/26 06:36:29;;;;;;;14.27;9.02;;;;;;;16.74;66.94;101107.34;5072156;28;20082;-70
2023/07/26 06:38:54;;;;;;;13.65;9.13;;;;;;;16.73;67.08;101116.84;5060282;28;20017;-70
2023/07/26 06:41:19;;;;;;;13.88;9.50;;;;;;;16.71;67.39;101107.88;5070050;28;20032;-70
2023/07/26 06:43:46;;;;;;;12.60;8.65;;;;;;;16.71;68.18;101105.06;5062980;28;20033;-70
2023/07/26 06:46:11;;;;;;;12.68;9.55;;;;;;;16.73;68.15;101114.06;5053022;28;20040;-70
2023/07/26 06:48:36;;;;;;;13.80;9.27;;;;;;;16.70;69.27;101117.41;5060986;28;20086;-70
2023/07/26 06:51:04;;;;;;;11.68;9.63;;;;;;;16.67;69.26;101118.00;5065320;28;20477;-69
2023/07/26 06:53:29;;;;;;;15.43;9.38;;;;;;;16.70;69.17;101123.00;5068648;28;20039;-69
2023/07/26 06:55:57;;;;;;;19.48;8.95;;;;;;;16.72;69.20;101123.56;5071229;28;20032;-71
2023/07/26 06:58:23;;;;;;;13.60;9.43;;;;;;;16.70;69.19;101125.81;5070021;28;20032;-71
2023/07/26 07:00:48;;;;;;;14.32;8.70;;;;;;;16.69;69.80;101119.38;5056108;28;20391;-68
2023/07/26 07:03:13;;;;;;;14.75;10.00;;;;;;;16.67;70.59;101118.81;5050606;28;20068;-70
2023/07/26 07:05:39;;;;;;;14.50;9.73;;;;;;;16.68;69.86;101126.09;5072471;28;20806;-69
2023/07/26 07:08:04;;;;;;;14.02;9.77;;;;;;;16.64;70.80;101125.00;5069823;28;20054;-69
2023/07/26 07:10:29;;;;;;;15.48;9.90;;;;;;;16.61;71.49;101124.72;5065092;28;20451;-69
2023/07/26 07:12:54;;;;;;;17.08;9.23;;;;;;;16.62;71.40;101135.69;5064981;28;20526;-69
2023/07/26 07:15:20;;;;;;;12.00;9.85;;;;;;;16.63;72.03;101142.13;5052711;28;20131;-70
2023/07/26 07:17:45;;;;;;;11.95;9.40;;;;;;;16.59;72.02;101149.41;5052784;28;20036;-74
2023/07/26 07:20:10;;;;;;;12.95;9.15;;;;;;;16.59;71.72;101152.22;5077581;28;20094;-72
2023/07/26 07:22:36;;;;;;;14.35;10.20;;;;;;;16.54;72.37;101153.06;5072321;28;20480;-71
2023/07/26 07:25:02;;;;;;;11.60;9.38;;;;;;;16.54;72.65;101155.03;5065933;28;20366;-71
2023/07/26 07:27:28;;;;;;;13.15;9.85;;;;;;;16.54;72.95;101166.22;5088015;28;20547;-72
2023/07/26 07:29:53;;;;;;;15.43;9.60;;;;;;;16.57;72.28;101172.09;5068630;28;20108;-71
2023/07/26 07:32:18;;;;;;;15.57;9.98;;;;;;;16.59;72.65;101177.44;5051597;28;20033;-71
2023/07/26 07:34:45;;;;;;;14.93;10.48;;;;;;;16.56;73.40;101173.25;5061200;28;20032;-78
2023/07/26 07:37:10;;;;;;;15.15;9.93;;;;;;;16.60;72.54;101171.53;5068557;28;20032;-71
2023/07/26 07:39:36;;;;;;;15.82;9.95;;;;;;;16.61;72.98;101175.19;5051243;28;20116;-75
2023/07/26 07:42:02;;;;;;;11.80;9.35;;;;;;;16.62;72.77;101168.44;5069693;28;20028;-71
2023/07/26 07:44:28;;;;;;;16.15;10.38;;;;;;;16.61;73.13;101175.19;5066584;28;20033;-71
2023/07/26 07:46:53;;;;;;;15.52;10.48;;;;;;;16.61;73.76;101175.19;5062831;28;20038;-69
2023/07/26 07:49:19;;;;;;;16.73;10.40;;;;;;;16.67;73.32;101171.25;5068820;28;20372;-70
2023/07/26 07:51:44;;;;;;;15.45;10.13;;;;;;;16.79;72.56;101173.75;5087115;28;20138;-71
2023/07/26 07:54:09;;;;;;;11.35;9.60;;;;;;;16.91;73.31;101163.03;5070048;28;20036;-71
2023/07/26 07:56:35;;;;;;;11.57;10.05;;;;;;;17.04;72.71;101159.59;5066704;28;20086;-70
2023/07/26 07:59:00;;;;;;;16.27;9.85;;;;;;;17.20;72.12;101157.53;5055059;28;20110;-74
2023/07/26 08:01:25;;;;;;;11.80;9.18;;;;;;;17.33;71.49;101168.13;5063343;28;20024;-69
2023/07/26 08:03:51;;;;;;;13.85;10.02;;;;;;;17.32;70.93;101166.44;5065114;28;20533;-63
2023/07/26 08:06:17;;;;;;;12.52;10.25;;;;;;;17.35;70.24;101160.25;5069930;28;20044;-71
2023/07/26 08:08:42;;;;;;;15.98;9.95;;;;;;;17.35;70.25;101159.41;5060875;28;20029;-73
2023/07/26 08:11:07;;;;;;;12.35;8.93;;;;;;;17.50;70.23;101159.31;5064230;28;20024;-74
2023/07/26 08:13:33;;;;;;;12.20;9.57;;;;;;;17.63;70.15;101160.59;5091602;28;20016;-74
2023/07/26 08:15:59;;;;;;;10.23;9.10;;;;;;;17.78;70.26;101157.69;5090098;28;20055;-74
2023/07/26 08:18:24;;;;;;;12.50;9.90;;;;;;;17.91;68.92;101161.78;5091192;28;20039;-73
2023/07/26 08:20:49;;;;;;;13.93;10.10;;;;;;;18.04;68.84;101155.50;5091153;28;20016;-73
2023/07/26 08:23:15;;;;;;;14.75;10.18;;;;;;;18.18;69.60;101164.06;5090982;28;20234;-73
2023/07/26 08:25:40;;;;;;;11.77;9.23;;;;;;;18.30;69.70;101158.84;5090334;28;20032;-73
2023/07/26 08:28:06;;;;;;;12.45;9.05;;;;;;;18.35;68.11;101152.34;5060591;28;20610;-73
2023/07/26 08:30:31;;;;;;;14.32;9.88;;;;;;;18.51;68.51;101155.81;5070612;28;20032;-73
2023/07/26 08:32:57;;;;;;;9.82;8.80;;;;;;;18.61;67.72;101161.31;5070175;28;20111;-74
2023/07/26 08:35:22;;;;;;;10.77;8.38;;;;;;;18.69;66.91;101166.28;5051064;28;20175;-73
2023/07/26 08:37:48;;;;;;;10.48;8.43;;;;;;;18.80;66.79;101164.22;5051019;28;20052;-73
2023/07/26 08:40:13;;;;;;;12.90;9.23;;;;;;;18.89;67.12;101156.78;5062092;28;20053;-75
2023/07/26 08:42:39;;;;;;;12.55;8.50;;;;;;;18.99;66.44;101150.19;5053800;28;20099;-73
2023/07/26 08:45:06;;;;;;;12.50;8.30;;;;;;;18.93;65.64;101155.03;5061036;28;20107;-73
2023/07/26 08:47:34;;;;;;;12.60;8.98;;;;;;;18.91;65.23;101162.13;5060853;28;20484;-74
2023/07/26 08:49:59;;;;;;;9.52;8.10;;;;;;;18.92;64.54;101155.34;5056782;28;20028;-74
2023/07/26 08:52:25;;;;;;;10.00;7.15;;;;;;;19.01;64.12;101156.34;5070819;28;20460;-73
2023/07/26 08:54:52;;;;;;;11.48;8.18;;;;;;;19.09;63.16;101152.84;5069671;28;20442;-73
2023/07/26 08:57:18;;;;;;;10.45;8.20;;;;;;;19.09;63.41;101145.25;5071977;28;20058;-73
2023/07/26 08:59:43;;;;;;;9.23;7.80;;;;;;;19.08;63.22;101143.56;5090971;28;20580;-73
2023/07/26 09:02:11;;;;;;;10.23;7.78;;;;;;;19.14;62.88;101144.34;5088558;28;20089;-74
2023/07/26 09:04:36;;;;;;;10.80;7.05;;;;;;;19.10;62.05;101140.47;5066930;28;20588;-71
2023/07/26 09:07:03;;;;;;;9.55;6.88;;;;;;;19.19;61.84;101135.81;5072784;28;20016;-72
2023/07/26 09:09:31;;;;;;;9.85;5.78;;;;;;;19.21;61.23;101135.50;5073873;28;20033;-73
2023/07/26 09:11:56;;;;;;;8.23;6.70;;;;;;;19.22;61.12;101129.59;5065712;28;20024;-74
2023/07/26 09:14:27;;;;;;;7.70;5.97;;;;;;;19.26;60.14;101130.66;5071604;28;20054;-74
2023/07/26 09:16:55;;;;;;;7.55;6.00;;;;;;;19.19;59.93;101135.81;5085330;28;20036;-73
2023/07/26 09:19:27;;;;;;;10.27;6.70;;;;;;;19.16;60.65;101138.41;5070637;28;21258;-69
2023/07/26 09:21:57;;;;;;;8.43;6.15;;;;;;;19.18;59.58;101131.34;5059478;28;20075;-74
2023/07/26 09:24:29;;;;;;;6.15;5.20;;;;;;;19.09;57.23;101139.59;5054176;28;20099;-74
2023/07/26 09:27:01;;;;;;;;;;;;;;;19.20;59.66;101134.69;5070864;28;20430;-75
2023/07/26 09:29:26;;;;;;;8.93;5.03;;;;;;;19.11;57.53;101139.31;5067308;28;19932;-75
2023/07/26 09:31:52;;;;;;;8.23;5.43;;;;;;;19.22;58.84;101140.84;5069974;28;20039;-75
2023/07/26 09:34:18;;;;;;;8.63;5.22;;;;;;;19.31;57.65;101133.38;5064340;28;20082;-74
2023/07/26 09:36:45;;;;;;;8.82;6.10;;;;;;;19.35;56.86;101140.06;5077925;28;20028;-74
2023/07/26 09:39:12;;;;;;;7.82;5.60;;;;;;;19.38;57.08;101133.84;5089615;28;20031;-74
2023/07/26 09:41:38;;;;;;;6.50;5.38;;;;;;;19.49;57.88;101148.59;5061747;28;20124;-74
2023/07/26 09:44:13;;;;;;;6.13;4.30;;;;;;;19.63;56.40;101137.41;5049163;28;20107;-74
2023/07/26 09:46:53;;;;;;;4.95;3.50;;;;;;;19.69;55.17;101147.47;5052354;28;20429;-75
2023/07/26 09:49:26;;;;;;;3.55;2.55;;;;;;;19.71;50.39;101145.16;5050104;28;20036;-74
2023/07/26 09:51:54;;;;;;;3.38;2.20;;;;;;;19.77;49.11;101146.75;5049822;28;20132;-74
2023/07/26 09:54:25;;;;;;;5.03;2.42;;;;;;;19.88;48.70;101140.94;5049589;28;20028;-75
2023/07/26 09:56:56;;;;;;;2.20;1.90;;;;;;;19.94;48.70;101139.69;5048837;28;20124;-74
2023/07/26 09:59:25;;;;;;;3.13;1.95;;;;;;;20.02;46.80;101133.34;5072605;28;20298;-74
2023/07/26 10:01:52;;;;;;;2.53;2.33;;;;;;;20.00;47.31;101139.31;5093984;28;20036;-74
2023/07/26 10:04:37;;;;;;;3.30;2.67;;;;;;;20.00;49.74;101135.63;5094013;28;20024;-74
2023/07/26 10:07:08;;;;;;;2.97;2.50;;;;;;;19.92;49.04;101144.78;5076497;28;20086;-74
2023/07/26 10:09:34;;;;;;;4.10;2.78;;;;;;;19.85;50.65;101140.41;5053913;28;20086;-74
2023/07/26 10:12:02;;;;;;;4.90;3.40;;;;;;;19.78;50.87;101139.97;5055085;28;20047;-74
2023/07/26 10:14:29;;;;;;;5.35;3.35;;;;;;;19.68;51.75;101131.69;5061350;28;20487;-75
2023/07/26 10:16:58;;;;;;;6.28;3.72;;;;;;;19.66;51.97;101133.97;5066368;28;20044;-74
2023/07/26 10:19:26;;;;;;;5.40;3.25;;;;;;;19.62;51.66;101132.94;5073134;28;20021;-73
2023/07/26 10:21:52;;;;;;;5.88;3.97;;;;;;;19.64;52.99;101132.59;5052535;28;20484;-75
2023/07/26 10:24:19;;;;;;;6.35;4.15;;;;;;;19.72;53.48;101124.28;5053826;28;20060;-75
2023/07/26 10:26:46;;;;;;;6.65;4.57;;;;;;;19.90;54.36;101125.41;5059192;28;20047;-77
2023/07/26 10:29:12;;;;;;;8.00;4.80;;;;;;;20.04;54.42;101131.03;5084581;28;20036;-73
2023/07/26 10:31:37;;;;;;;5.60;4.30;;;;;;;20.14;53.36;101130.88;5094123;28;20060;-75
2023/07/26 10:34:03;;;;;;;6.95;4.82;;;;;;;20.22;53.58;101124.50;5092524;28;20020;-71
2023/07/26 10:36:33;;;;;;;7.25;4.40;;;;;;;20.33;53.89;101125.16;5072650;28;20035;-70
2023/07/26 10:39:04;;;;;;;7.72;4.38;;;;;;;20.47;53.76;101125.97;5072240;28;20071;-69
2023/07/26 10:41:30;;;;;;;6.90;5.13;;;;;;;20.46;53.65;101129.13;5063131;28;20476;-71
2023/07/26 10:44:06;;;;;;;5.03;3.90;;;;;;;20.49;53.88;101128.53;5056426;28;20130;-70
2023/07/26 10:46:48;;;;;;;7.65;4.35;;;;;;;20.42;52.92;101122.44;5055417;28;20478;-69
2023/07/26 10:49:24;;;;;;;7.57;4.60;;;;;;;20.31;53.50;101124.63;5052431;28;20021;-71
2023/07/26 10:52:04;;;;;;;6.25;4.43;;;;;;;20.32;53.41;101124.31;5051879;28;20787;-71
2023/07/26 10:54:44;;;;;;;5.63;4.82;;;;;;;20.46;54.34;101126.28;5057039;28;20502;-70
2023/07/26 10:57:27;;;;;;;4.47;3.00;;;;;;;20.75;56.00;101118.38;5060286;28;20032;-73
2023/07/26 11:00:22;;;;;;;7.75;4.22;;;;;;;20.85;54.21;101122.97;5071875;28;20040;-69
2023/07/26 11:02:50;;;;;;;7.88;4.22;;;;;;;20.95;53.56;101125.56;5056844;28;20078;-70
2023/07/26 11:05:21;;;;;;;5.95;4.13;;;;;;;21.04;51.35;101120.00;5068270;28;20024;-73
2023/07/26 11:07:54;;;;;;;5.70;3.15;;;;;;;21.21;53.44;101116.50;5070980;28;20387;-72
2023/07/26 11:10:24;;;;;;;7.18;4.15;;;;;;;21.25;50.62;101112.72;5081465;28;20472;-73
2023/07/26 11:13:06;;;;;;;4.93;3.53;;;;;;;21.33;51.15;101113.97;5065728;28;21083;-70
2023/07/26 11:15:33;;;;;;;6.22;4.13;;;;;;;21.46;50.85;101120.75;5056413;28;20037;-73
2023/07/26 11:17:58;;;;;;;7.13;4.18;;;;;;;21.46;52.22;101106.63;5051838;28;20053;-73